createdAt,value
2022-11-01T00:00:44.246Z,71.64
2022-11-01T00:01:34.285Z,72.04
2022-11-01T00:02:42.865Z,71.64
2022-11-01T00:03:34.152Z,72.04
2022-11-01T00:04:34.176Z,71.94
2022-11-01T00:05:34.132Z,72.04
2022-11-01T00:06:34.105Z,71.94
2022-11-01T00:07:34.123Z,72.14
2022-11-01T00:08:34.081Z,72.34
2022-11-01T00:09:34.065Z,72.44
2022-11-01T00:10:34.178Z,72.64
2022-11-01T00:11:34.063Z,72.64
2022-11-01T00:12:34.033Z,72.64
2022-11-01T00:13:34.041Z,72.34
2022-11-01T00:16:01.122Z,72.44
2022-11-01T00:16:11.855Z,72.85
2022-11-01T00:17:13.372Z,73.45
2022-11-01T00:18:14.347Z,73.38
2022-11-01T00:19:05.757Z,73.79
2022-11-01T00:20:05.799Z,73.99
2022-11-01T00:21:05.764Z,73.99
2022-11-01T00:22:05.736Z,74.59
2022-11-01T00:23:05.769Z,75.30
2022-11-01T00:24:05.729Z,75.70
2022-11-01T00:25:15.773Z,77.04
2022-11-01T00:26:15.727Z,76.95
2022-11-01T00:27:05.651Z,77.15
2022-11-01T00:28:05.725Z,77.66
2022-11-01T00:29:05.641Z,79.00
2022-11-01T00:30:05.646Z,79.30
2022-11-01T00:31:07.713Z,80.11
2022-11-01T00:32:05.593Z,79.44
2022-11-01T00:33:05.572Z,80.72
2022-11-01T00:34:05.775Z,81.87
2022-11-01T00:35:05.807Z,81.87
2022-11-01T00:36:15.567Z,83.42
2022-11-01T00:37:15.813Z,82.61
2022-11-01T00:38:16.899Z,83.72
2022-11-01T00:39:05.544Z,83.22
2022-11-01T00:40:05.912Z,83.32
2022-11-01T00:41:05.513Z,83.42
2022-11-01T00:42:15.574Z,83.86
2022-11-01T00:43:05.533Z,83.62
2022-11-01T00:44:05.674Z,83.72
2022-11-01T00:45:05.460Z,85.38
2022-11-01T00:46:15.474Z,85.08
2022-11-01T00:47:05.376Z,86.08
2022-11-01T00:48:15.406Z,85.78
2022-11-01T00:49:15.421Z,86.13
2022-11-01T00:50:05.350Z,85.72
2022-11-01T00:51:12.886Z,85.62
2022-11-01T00:52:15.353Z,86.08
2022-11-01T00:53:05.304Z,85.68
2022-11-01T00:54:14.024Z,85.28
2022-11-01T00:55:05.294Z,86.99
2022-11-01T00:56:05.284Z,86.99
2022-11-01T00:57:05.308Z,85.78
2022-11-01T00:58:05.333Z,86.59
2022-11-01T00:59:05.307Z,85.68
2022-11-01T01:00:05.283Z,86.49
2022-11-01T01:01:05.537Z,86.90
2022-11-01T01:02:05.423Z,85.28
2022-11-01T01:03:05.244Z,85.58
2022-11-01T01:04:05.254Z,84.67
2022-11-01T01:05:05.240Z,84.87
2022-11-01T01:06:05.231Z,84.67
2022-11-01T01:07:05.162Z,85.17
2022-11-01T01:08:05.149Z,85.17
2022-11-01T01:09:05.167Z,84.67
2022-11-01T01:10:05.120Z,84.57
2022-11-01T01:11:05.150Z,84.87
2022-11-01T01:12:05.099Z,84.57
2022-11-01T01:13:05.350Z,85.17
2022-11-01T01:14:05.085Z,84.87
2022-11-01T01:15:05.043Z,84.37
2022-11-01T01:16:05.093Z,84.23
2022-11-01T01:17:05.016Z,85.17
2022-11-01T01:18:05.187Z,85.48
2022-11-01T01:19:05.012Z,84.67
2022-11-01T01:20:04.967Z,84.47
2022-11-01T01:21:04.979Z,84.67
2022-11-01T01:22:04.998Z,83.62
2022-11-01T01:23:05.156Z,83.32
2022-11-01T01:24:04.950Z,83.22
2022-11-01T01:25:04.952Z,83.01
2022-11-01T01:26:04.902Z,82.78
2022-11-01T01:27:04.877Z,82.67
2022-11-01T01:28:05.218Z,83.07
2022-11-01T01:29:04.903Z,82.78
2022-11-01T01:30:04.859Z,82.27
2022-11-01T01:31:04.827Z,82.67
2022-11-01T01:32:04.824Z,82.87
2022-11-01T01:33:04.891Z,82.67
2022-11-01T01:34:04.824Z,82.87
2022-11-01T01:35:04.859Z,82.57
2022-11-01T01:36:04.777Z,82.37
2022-11-01T01:37:04.750Z,82.37
2022-11-01T01:38:05.127Z,82.27
2022-11-01T01:39:04.759Z,82.47
2022-11-01T01:40:04.761Z,82.57
2022-11-01T01:41:04.691Z,82.17
2022-11-01T01:42:04.676Z,81.87
2022-11-01T01:43:04.702Z,81.87
2022-11-01T01:44:04.688Z,81.42
2022-11-01T01:45:04.693Z,81.42
2022-11-01T01:46:04.660Z,81.82
2022-11-01T01:47:04.657Z,81.62
2022-11-01T01:48:04.837Z,81.62
2022-11-01T01:49:04.617Z,81.32
2022-11-01T01:50:04.571Z,81.52
2022-11-01T01:51:04.585Z,81.12
2022-11-01T01:52:04.593Z,81.02
2022-11-01T01:53:04.809Z,81.22
2022-11-01T01:54:04.613Z,81.12
2022-11-01T01:55:04.548Z,81.22
2022-11-01T01:56:04.497Z,81.22
2022-11-01T01:57:04.585Z,81.62
2022-11-01T01:58:04.480Z,81.42
2022-11-01T01:59:04.496Z,81.12
2022-11-01T02:00:04.468Z,81.32
2022-11-01T02:01:04.518Z,81.32
2022-11-01T02:02:04.553Z,81.12
2022-11-01T02:03:04.569Z,80.41
2022-11-01T02:08:26.471Z,80.72
2022-11-01T02:10:26.392Z,80.51
2022-11-01T02:22:41.520Z,81.02
2022-11-01T02:23:36.667Z,81.12
2022-11-01T02:24:36.670Z,81.42
2022-11-01T02:25:36.628Z,81.22
2022-11-01T02:26:36.627Z,81.12
2022-11-01T02:27:36.607Z,81.02
2022-11-01T02:28:36.608Z,81.12
2022-11-01T02:29:36.600Z,81.42
2022-11-01T02:30:36.567Z,81.42
2022-11-01T02:31:36.580Z,81.42
2022-11-01T02:32:36.570Z,81.52
2022-11-01T02:33:36.528Z,81.82
2022-11-01T02:34:36.540Z,81.87
2022-11-01T02:35:36.500Z,81.67
2022-11-01T02:36:36.510Z,81.73
2022-11-01T02:37:36.479Z,81.73
2022-11-01T02:38:36.484Z,81.62
2022-11-01T02:39:36.452Z,81.42
2022-11-01T02:40:36.452Z,81.62
2022-11-01T02:41:36.416Z,81.73
2022-11-01T02:42:36.402Z,81.73
2022-11-01T02:43:36.403Z,81.76
2022-11-01T02:44:36.372Z,81.42
2022-11-01T02:45:36.363Z,81.32
2022-11-01T02:46:36.364Z,81.52
2022-11-01T02:47:36.342Z,81.73
2022-11-01T02:48:36.343Z,81.76
2022-11-01T02:49:36.313Z,81.62
2022-11-01T02:50:36.301Z,81.62
2022-11-01T02:51:36.293Z,81.82
2022-11-01T02:52:36.297Z,81.96
2022-11-01T02:53:36.284Z,82.17
2022-11-01T02:54:36.266Z,82.27
2022-11-01T02:55:36.360Z,82.07
2022-11-01T02:56:36.217Z,81.82
2022-11-01T02:57:36.218Z,82.03
2022-11-01T02:58:36.194Z,82.37
2022-11-01T02:59:36.179Z,82.27
2022-11-01T03:00:36.163Z,82.57
2022-11-01T03:03:03.274Z,82.47
2022-11-01T03:09:32.683Z,82.67
2022-11-01T03:23:42.286Z,84.97
2022-11-01T03:24:21.152Z,84.87
2022-11-01T03:25:21.072Z,85.14
2022-11-01T03:26:21.054Z,85.08
2022-11-01T03:27:21.055Z,85.28
2022-11-01T03:28:21.002Z,85.03
2022-11-01T03:29:20.993Z,85.14
2022-11-01T03:30:20.992Z,85.03
2022-11-01T03:31:20.960Z,85.03
2022-11-01T03:32:20.978Z,85.14
2022-11-01T03:33:21.026Z,85.48
2022-11-01T03:34:20.921Z,85.58
2022-11-01T03:35:20.920Z,85.68
2022-11-01T03:36:20.919Z,85.68
2022-11-01T03:37:20.886Z,85.68
2022-11-01T03:38:20.878Z,85.68
2022-11-01T03:39:20.937Z,85.68
2022-11-01T03:40:21.610Z,85.88
2022-11-01T03:41:20.840Z,85.78
2022-11-01T03:42:20.827Z,85.88
2022-11-01T03:43:20.828Z,85.84
2022-11-01T03:44:20.840Z,85.74
2022-11-01T03:45:20.910Z,85.84
2022-11-01T03:46:20.769Z,85.99
2022-11-01T03:47:20.746Z,86.08
2022-11-01T03:48:20.731Z,86.19
2022-11-01T03:49:20.750Z,86.39
2022-11-01T03:50:20.708Z,86.49
2022-11-01T03:51:20.721Z,86.59
2022-11-01T03:52:20.681Z,86.69
2022-11-01T03:53:20.680Z,86.79
2022-11-01T03:54:20.717Z,86.79
2022-11-01T03:55:20.672Z,86.90
2022-11-01T03:56:20.621Z,86.90
2022-11-01T03:57:20.645Z,86.79
2022-11-01T03:58:20.630Z,86.69
2022-11-01T03:59:20.640Z,86.90
2022-11-01T04:00:29.322Z,86.90
2022-11-01T04:01:20.960Z,86.99
2022-11-01T04:02:20.609Z,87.10
2022-11-01T04:03:20.540Z,86.99
2022-11-01T04:04:20.546Z,87.19
2022-11-01T04:05:20.600Z,87.40
2022-11-01T04:06:20.568Z,87.50
2022-11-01T04:07:20.466Z,87.70
2022-11-01T04:08:20.470Z,87.60
2022-11-01T04:09:20.476Z,87.70
2022-11-01T04:10:20.675Z,87.90
2022-11-01T04:11:20.447Z,87.81
2022-11-01T04:12:20.470Z,87.81
2022-11-01T04:13:20.496Z,87.60
2022-11-01T04:14:20.412Z,87.60
2022-11-01T04:15:20.361Z,87.60
2022-11-01T04:16:20.371Z,87.60
2022-11-01T04:17:20.340Z,87.70
2022-11-01T04:18:20.390Z,87.81
2022-11-01T04:19:20.392Z,87.90
2022-11-01T04:20:20.321Z,87.81
2022-11-01T04:21:20.293Z,87.70
2022-11-01T04:22:23.600Z,87.70
2022-11-01T04:23:20.334Z,87.70
2022-11-01T04:24:30.425Z,87.70
2022-11-01T04:25:20.539Z,87.81
2022-11-01T04:26:20.254Z,87.81
2022-11-01T04:27:20.244Z,87.90
2022-11-01T04:28:20.256Z,88.10
2022-11-01T04:29:20.211Z,88.31
2022-11-01T04:30:20.282Z,88.31
2022-11-01T04:31:20.150Z,88.41
2022-11-01T04:32:20.154Z,88.41
2022-11-01T04:33:20.161Z,88.31
2022-11-01T04:34:20.101Z,88.41
2022-11-01T04:35:20.140Z,88.41
2022-11-01T04:36:20.131Z,88.41
2022-11-01T04:37:20.099Z,88.41
2022-11-01T04:38:20.079Z,88.51
2022-11-01T04:39:20.073Z,88.41
2022-11-01T04:40:20.051Z,88.51
2022-11-01T04:41:20.085Z,88.41
2022-11-01T04:42:20.096Z,88.41
2022-11-01T04:43:20.029Z,88.41
2022-11-01T04:44:20.059Z,88.31
2022-11-01T04:45:20.235Z,88.21
2022-11-01T04:46:19.944Z,88.31
2022-11-01T04:47:19.972Z,88.21
2022-11-01T04:48:19.982Z,88.21
2022-11-01T04:49:19.914Z,88.06
2022-11-01T04:50:19.979Z,87.86
2022-11-01T04:51:19.923Z,87.76
2022-11-01T04:52:19.885Z,87.96
2022-11-01T04:53:19.912Z,87.86
2022-11-01T04:54:19.872Z,87.86
2022-11-01T04:55:19.848Z,87.86
2022-11-01T04:56:19.848Z,87.76
2022-11-01T04:57:19.825Z,87.66
2022-11-01T04:58:19.847Z,87.56
2022-11-01T04:59:19.798Z,87.15
2022-11-01T05:00:20.043Z,87.56
2022-11-01T05:01:19.920Z,87.15
2022-11-01T05:02:19.839Z,86.95
2022-11-01T05:03:19.762Z,86.75
2022-11-01T05:04:19.768Z,86.55
2022-11-01T05:05:19.708Z,86.55
2022-11-01T05:06:19.725Z,86.45
2022-11-01T05:07:19.692Z,86.45
2022-11-01T05:08:19.644Z,86.35
2022-11-01T05:09:19.670Z,86.25
2022-11-01T05:10:19.679Z,86.25
2022-11-01T05:11:19.655Z,86.04
2022-11-01T05:12:19.723Z,86.25
2022-11-01T05:13:19.613Z,86.35
2022-11-01T05:14:19.611Z,86.25
2022-11-01T05:15:19.553Z,86.04
2022-11-01T05:16:20.637Z,86.35
2022-11-01T05:17:19.554Z,86.35
2022-11-01T05:18:19.542Z,86.04
2022-11-01T05:19:19.522Z,86.04
2022-11-01T05:20:19.560Z,86.04
2022-11-01T05:21:19.480Z,85.64
2022-11-01T05:22:19.485Z,85.03
2022-11-01T05:23:19.523Z,84.59
2022-11-01T05:24:19.437Z,84.79
2022-11-01T05:25:19.444Z,84.29
2022-11-01T05:26:19.421Z,83.98
2022-11-01T05:27:19.445Z,83.98
2022-11-01T05:28:19.396Z,84.09
2022-11-01T05:29:24.755Z,83.98
2022-11-01T05:30:20.400Z,84.09
2022-11-01T05:31:19.367Z,84.09
2022-11-01T05:32:19.356Z,84.09
2022-11-01T05:33:19.356Z,83.78
2022-11-01T05:34:19.357Z,83.58
2022-11-01T05:35:19.438Z,83.68
2022-11-01T05:36:19.290Z,83.58
2022-11-01T05:37:19.299Z,82.98
2022-11-01T05:38:19.278Z,82.93
2022-11-01T05:39:19.289Z,82.03
2022-11-01T05:40:19.239Z,82.53
2022-11-01T05:41:19.241Z,82.33
2022-11-01T05:42:19.295Z,81.93
2022-11-01T05:43:19.272Z,81.82
2022-11-01T05:44:19.240Z,81.73
2022-11-01T05:45:19.183Z,81.73
2022-11-01T05:46:19.149Z,81.42
2022-11-01T05:47:19.139Z,81.22
2022-11-01T05:48:19.174Z,81.22
2022-11-01T05:49:19.188Z,81.22
2022-11-01T05:50:19.123Z,81.32
2022-11-01T05:51:19.115Z,81.32
2022-11-01T05:52:19.120Z,81.42
2022-11-01T05:53:19.082Z,81.12
2022-11-01T05:54:19.068Z,81.73
2022-11-01T05:55:19.065Z,81.67
2022-11-01T05:56:19.036Z,82.27
2022-11-01T05:57:19.048Z,81.56
2022-11-01T05:58:19.165Z,81.30
2022-11-01T05:59:19.057Z,79.08
2022-11-01T06:00:18.992Z,78.97
2022-11-01T06:01:19.063Z,78.37
2022-11-01T06:02:19.019Z,77.66
2022-11-01T06:03:18.927Z,77.26
2022-11-01T06:04:18.920Z,76.65
2022-11-01T06:05:18.978Z,76.45
2022-11-01T06:06:18.868Z,76.45
2022-11-01T06:07:18.878Z,75.84
2022-11-01T06:08:18.880Z,75.84
2022-11-01T06:09:18.899Z,74.43
2022-11-01T06:10:18.880Z,74.22
2022-11-01T06:11:18.868Z,74.22
2022-11-01T06:12:19.017Z,74.43
2022-11-01T06:13:19.086Z,74.53
2022-11-01T06:14:18.791Z,74.02
2022-11-01T06:15:18.798Z,74.22
2022-11-01T06:16:18.758Z,74.43
2022-11-01T06:17:18.745Z,74.84
2022-11-01T06:18:18.763Z,74.37
2022-11-01T06:19:18.712Z,75.07
2022-11-01T06:20:18.716Z,75.17
2022-11-01T06:21:18.698Z,74.87
2022-11-01T06:22:18.692Z,75.07
2022-11-01T06:23:18.677Z,75.37
2022-11-01T06:24:18.673Z,75.17
2022-11-01T06:25:18.636Z,75.27
2022-11-01T06:26:18.696Z,75.27
2022-11-01T06:27:18.669Z,75.51
2022-11-01T06:28:18.615Z,75.71
2022-11-01T06:29:18.601Z,75.92
2022-11-01T06:30:18.809Z,76.52
2022-11-01T06:31:18.701Z,76.62
2022-11-01T06:32:18.732Z,76.62
2022-11-01T06:33:18.682Z,76.72
2022-11-01T06:34:18.575Z,77.13
2022-11-01T06:35:18.618Z,77.26
2022-11-01T06:36:18.557Z,77.67
2022-11-01T06:37:18.479Z,77.57
2022-11-01T06:38:18.475Z,77.67
2022-11-01T06:39:18.437Z,77.57
2022-11-01T06:40:18.481Z,77.77
2022-11-01T06:41:18.416Z,77.77
2022-11-01T06:42:18.418Z,78.17
2022-11-01T06:43:18.433Z,77.57
2022-11-01T06:44:18.376Z,77.81
2022-11-01T06:45:18.382Z,77.81
2022-11-01T06:46:18.339Z,77.91
2022-11-01T06:47:18.325Z,78.11
2022-11-01T06:48:18.361Z,78.11
2022-11-01T06:49:19.322Z,78.42
2022-11-01T06:50:18.312Z,78.86
2022-11-01T06:51:18.311Z,78.35
2022-11-01T06:52:18.344Z,77.95
2022-11-01T06:53:18.244Z,77.54
2022-11-01T06:54:18.304Z,77.64
2022-11-01T06:55:18.326Z,77.84
2022-11-01T06:56:18.236Z,78.05
2022-11-01T06:57:18.239Z,78.45
2022-11-01T06:58:18.244Z,78.66
2022-11-01T06:59:18.223Z,79.16
2022-11-01T07:00:18.154Z,79.46
2022-11-01T07:01:18.220Z,79.50
2022-11-01T07:02:19.802Z,79.80
2022-11-01T07:03:18.234Z,79.60
2022-11-01T07:04:18.137Z,79.80
2022-11-01T07:05:18.105Z,79.50
2022-11-01T07:06:18.088Z,79.30
2022-11-01T07:07:18.089Z,79.40
2022-11-01T07:08:18.097Z,79.50
2022-11-01T07:09:18.096Z,78.73
2022-11-01T07:10:18.066Z,78.93
2022-11-01T07:11:18.047Z,77.11
2022-11-01T07:12:17.986Z,76.80
2022-11-01T07:13:18.259Z,77.41
2022-11-01T07:14:17.979Z,77.21
2022-11-01T07:15:17.995Z,77.51
2022-11-01T07:16:17.975Z,77.61
2022-11-01T07:17:17.963Z,77.75
2022-11-01T07:18:18.136Z,77.55
2022-11-01T07:19:17.899Z,77.25
2022-11-01T07:20:17.930Z,77.04
2022-11-01T07:21:17.935Z,76.23
2022-11-01T07:22:17.889Z,76.33
2022-11-01T07:23:17.940Z,76.23
2022-11-01T07:24:17.899Z,76.33
2022-11-01T07:25:17.847Z,76.37
2022-11-01T07:26:17.909Z,76.37
2022-11-01T07:27:20.460Z,76.06
2022-11-01T07:28:17.802Z,75.56
2022-11-01T07:29:17.789Z,75.96
2022-11-01T07:30:17.751Z,75.46
2022-11-01T07:31:17.874Z,75.25
2022-11-01T07:32:17.771Z,75.66
2022-11-01T07:33:17.765Z,75.76
2022-11-01T07:34:17.717Z,76.06
2022-11-01T07:35:17.716Z,75.90
2022-11-01T07:36:17.708Z,75.90
2022-11-01T07:37:17.729Z,75.90
2022-11-01T07:38:17.986Z,75.29
2022-11-01T07:39:17.629Z,75.59
2022-11-01T07:40:17.642Z,76.00
2022-11-01T07:41:17.639Z,75.70
2022-11-01T07:42:17.668Z,75.70
2022-11-01T07:43:17.638Z,75.59
2022-11-01T07:44:17.576Z,75.49
2022-11-01T07:45:17.577Z,74.85
2022-11-01T07:46:17.566Z,74.95
2022-11-01T07:47:17.547Z,74.74
2022-11-01T07:48:17.549Z,74.54
2022-11-01T07:49:17.528Z,74.44
2022-11-01T07:50:17.509Z,75.01
2022-11-01T07:51:17.498Z,73.70
2022-11-01T07:52:17.481Z,73.49
2022-11-01T07:53:17.459Z,72.99
2022-11-01T07:54:17.451Z,73.39
2022-11-01T07:55:17.451Z,73.29
2022-11-01T07:56:17.402Z,72.78
2022-11-01T07:57:17.414Z,72.75
2022-11-01T07:58:17.383Z,73.66
2022-11-01T07:59:17.397Z,73.76
2022-11-01T08:00:17.454Z,73.97
2022-11-01T08:01:17.511Z,73.66
2022-11-01T08:02:17.497Z,73.46
2022-11-01T08:03:17.342Z,74.04
2022-11-01T08:04:17.355Z,73.25
2022-11-01T08:05:17.355Z,72.34
2022-11-01T08:06:17.367Z,72.14
2022-11-01T08:07:17.400Z,72.45
2022-11-01T08:08:17.247Z,72.65
2022-11-01T08:09:17.234Z,72.75
2022-11-01T08:10:17.264Z,72.45
2022-11-01T08:11:17.245Z,72.14
2022-11-01T08:12:17.217Z,71.84
2022-11-01T08:13:17.177Z,72.24
2022-11-01T08:14:17.179Z,71.91
2022-11-01T08:15:17.296Z,72.11
2022-11-01T08:16:17.189Z,71.80
2022-11-01T08:17:17.169Z,71.09
2022-11-01T08:18:17.173Z,70.79
2022-11-01T08:19:17.149Z,71.40
2022-11-01T08:20:17.134Z,71.47
2022-11-01T08:21:17.176Z,70.22
2022-11-01T08:22:17.132Z,70.52
2022-11-01T08:23:17.079Z,69.74
2022-11-01T08:24:17.074Z,70.56
2022-11-01T08:25:17.027Z,70.45
2022-11-01T08:26:16.999Z,71.26
2022-11-01T08:27:17.095Z,70.86
2022-11-01T08:28:17.063Z,70.25
2022-11-01T08:29:16.982Z,70.15
2022-11-01T08:30:16.982Z,69.78
2022-11-01T08:31:16.979Z,69.68
2022-11-01T08:32:16.962Z,70.18
2022-11-01T08:33:16.912Z,69.88
2022-11-01T08:34:17.308Z,69.68
2022-11-01T08:35:16.875Z,70.39
2022-11-01T08:36:16.887Z,70.36
2022-11-01T08:37:16.960Z,69.17
2022-11-01T08:38:16.870Z,69.98
2022-11-01T08:39:16.883Z,69.57
2022-11-01T08:40:16.885Z,69.17
2022-11-01T08:41:16.953Z,69.57
2022-11-01T08:42:16.850Z,69.68
2022-11-01T08:43:16.824Z,70.39
2022-11-01T08:44:16.820Z,69.48
2022-11-01T08:45:16.892Z,69.78
2022-11-01T08:46:16.744Z,70.79
2022-11-01T08:47:16.736Z,69.88
2022-11-01T08:48:16.709Z,69.68
2022-11-01T08:49:16.764Z,69.68
2022-11-01T08:50:16.747Z,68.77
2022-11-01T08:51:16.707Z,69.27
2022-11-01T08:52:16.708Z,69.17
2022-11-01T08:53:16.927Z,69.17
2022-11-01T08:54:16.658Z,69.17
2022-11-01T08:55:16.648Z,69.57
2022-11-01T08:56:16.658Z,69.48
2022-11-01T08:57:16.608Z,69.17
2022-11-01T08:58:16.603Z,69.17
2022-11-01T08:59:16.815Z,69.17
2022-11-01T09:00:16.578Z,69.48
2022-11-01T09:01:16.732Z,68.46
2022-11-01T09:02:16.586Z,67.85
2022-11-01T09:03:16.564Z,67.96
2022-11-01T09:04:16.529Z,68.16
2022-11-01T09:05:16.534Z,67.85
2022-11-01T09:06:16.509Z,67.85
2022-11-01T09:07:16.450Z,68.06
2022-11-01T09:08:16.461Z,68.26
2022-11-01T09:09:16.502Z,67.25
2022-11-01T09:10:16.421Z,67.76
2022-11-01T09:11:16.422Z,68.16
2022-11-01T09:12:19.398Z,68.66
2022-11-01T09:13:17.404Z,67.85
2022-11-01T09:14:16.387Z,68.77
2022-11-01T09:15:16.386Z,67.05
2022-11-01T09:16:16.355Z,66.44
2022-11-01T09:17:16.310Z,67.65
2022-11-01T09:18:16.303Z,66.84
2022-11-01T09:19:16.360Z,66.24
2022-11-01T09:20:16.337Z,66.54
2022-11-01T09:21:16.301Z,66.84
2022-11-01T09:22:16.316Z,66.24
2022-11-01T09:23:16.266Z,65.22
2022-11-01T09:24:16.296Z,65.83
2022-11-01T09:25:16.247Z,66.24
2022-11-01T09:26:16.307Z,67.14
2022-11-01T09:27:16.215Z,66.24
2022-11-01T09:28:16.234Z,65.22
2022-11-01T09:29:16.169Z,65.32
2022-11-01T09:30:16.197Z,65.53
2022-11-01T09:31:20.876Z,65.29
2022-11-01T09:32:17.178Z,65.12
2022-11-01T09:33:16.139Z,65.39
2022-11-01T09:34:16.149Z,66.00
2022-11-01T09:35:16.128Z,66.30
2022-11-01T09:36:16.103Z,65.19
2022-11-01T09:37:16.129Z,64.69
2022-11-01T09:38:16.090Z,65.19
2022-11-01T09:39:16.032Z,64.99
2022-11-01T09:40:16.063Z,65.39
2022-11-01T09:41:16.072Z,64.69
2022-11-01T09:42:16.024Z,64.99
2022-11-01T09:43:16.015Z,65.09
2022-11-01T09:44:15.980Z,66.20
2022-11-01T09:45:15.976Z,65.56
2022-11-01T09:46:16.013Z,66.07
2022-11-01T09:47:15.986Z,65.67
2022-11-01T09:48:15.941Z,65.97
2022-11-01T09:49:15.897Z,65.23
2022-11-01T09:50:15.924Z,66.75
2022-11-01T09:51:16.027Z,65.33
2022-11-01T09:52:15.924Z,65.64
2022-11-01T09:53:15.833Z,65.73
2022-11-01T09:54:15.865Z,64.42
2022-11-01T09:55:15.841Z,65.33
2022-11-01T09:56:15.818Z,64.73
2022-11-01T09:57:15.816Z,64.62
2022-11-01T09:58:15.753Z,64.86
2022-11-01T09:59:15.788Z,64.96
2022-11-01T10:00:23.310Z,64.76
2022-11-01T10:01:15.776Z,65.56
2022-11-01T10:02:15.773Z,64.83
2022-11-01T10:03:15.731Z,64.56
2022-11-01T10:04:15.682Z,64.20
2022-11-01T10:05:18.680Z,62.48
2022-11-01T10:06:15.672Z,62.45
2022-11-01T10:07:15.654Z,62.25
2022-11-01T10:08:15.698Z,62.15
2022-11-01T10:09:15.613Z,62.02
2022-11-01T10:10:15.603Z,62.85
2022-11-01T10:11:15.587Z,61.65
2022-11-01T10:12:15.600Z,61.44
2022-11-01T10:13:15.565Z,62.05
2022-11-01T10:14:15.586Z,62.15
2022-11-01T10:15:15.555Z,63.39
2022-11-01T10:16:15.536Z,62.65
2022-11-01T10:17:15.535Z,63.36
2022-11-01T10:18:15.511Z,62.43
2022-11-01T10:19:15.511Z,62.52
2022-11-01T10:20:15.480Z,61.52
2022-11-01T10:21:15.483Z,62.19
2022-11-01T10:22:15.453Z,62.09
2022-11-01T10:23:15.457Z,61.59
2022-11-01T10:24:15.417Z,61.99
2022-11-01T10:25:15.449Z,61.82
2022-11-01T10:26:15.396Z,63.19
2022-11-01T10:27:15.391Z,63.73
2022-11-01T10:28:15.378Z,64.97
2022-11-01T10:29:15.409Z,65.67
2022-11-01T10:30:15.340Z,64.64
2022-11-01T10:31:15.343Z,64.64
2022-11-01T10:32:15.350Z,64.43
2022-11-01T10:33:24.272Z,64.56
2022-11-01T10:34:15.289Z,65.54
2022-11-01T10:35:15.326Z,64.43
2022-11-01T10:36:15.272Z,64.50
2022-11-01T10:37:15.262Z,64.54
2022-11-01T10:39:53.566Z,61.23
2022-11-01T10:40:16.225Z,61.33
2022-11-01T10:41:15.222Z,61.13
2022-11-01T10:42:15.205Z,62.04
2022-11-01T10:43:15.194Z,61.83
2022-11-01T10:44:15.186Z,61.23
2022-11-01T10:45:15.156Z,61.86
2022-11-01T10:46:15.140Z,61.99
2022-11-01T10:47:15.139Z,61.89
2022-11-01T10:48:15.119Z,61.99
2022-11-01T10:49:15.131Z,62.22
2022-11-01T10:50:15.126Z,62.32
2022-11-01T10:51:15.084Z,62.93
2022-11-01T10:52:15.070Z,63.26
2022-11-01T10:54:15.029Z,66.02
2022-11-01T10:55:15.032Z,66.02
2022-11-01T10:56:17.463Z,64.73
2022-11-01T10:57:15.003Z,64.84
2022-11-01T10:58:14.980Z,65.04
2022-11-01T10:59:14.969Z,65.01
2022-11-01T11:00:14.983Z,64.50
2022-11-01T11:01:15.085Z,65.51
2022-11-01T11:02:15.102Z,64.40
2022-11-01T11:03:14.934Z,64.00
2022-11-01T11:04:14.937Z,64.30
2022-11-01T11:05:14.888Z,63.90
2022-11-01T11:06:14.899Z,63.90
2022-11-01T11:07:18.535Z,64.03
2022-11-01T11:08:15.869Z,64.23
2022-11-01T11:09:14.845Z,64.33
2022-11-01T11:10:16.229Z,65.44
2022-11-01T11:11:14.852Z,65.14
2022-11-01T11:12:14.823Z,65.11
2022-11-01T11:13:14.783Z,64.84
2022-11-01T11:14:14.778Z,65.84
2022-11-01T11:15:14.780Z,65.64
2022-11-01T11:16:14.736Z,65.75
2022-11-01T11:17:14.719Z,65.31
2022-11-01T11:18:14.758Z,65.24
2022-11-01T11:19:14.704Z,65.54
2022-11-01T11:20:14.693Z,65.14
2022-11-01T11:21:14.693Z,65.44
2022-11-01T11:22:14.659Z,66.08
2022-11-01T11:23:14.680Z,65.98
2022-11-01T11:24:14.702Z,65.57
2022-11-01T11:25:24.663Z,65.57
2022-11-01T11:26:14.586Z,65.34
2022-11-01T11:27:14.598Z,65.75
2022-11-01T11:28:14.560Z,66.15
2022-11-01T11:29:14.596Z,65.64
2022-11-01T11:30:14.537Z,65.01
2022-11-01T11:31:14.526Z,65.31
2022-11-01T11:32:14.546Z,65.01
2022-11-01T11:33:14.489Z,64.87
2022-11-01T11:34:14.513Z,65.21
2022-11-01T11:35:14.540Z,65.51
2022-11-01T11:36:14.488Z,64.67
2022-11-01T11:37:14.445Z,63.67
2022-11-01T11:38:14.439Z,64.07
2022-11-01T11:39:14.420Z,63.26
2022-11-01T11:40:14.416Z,63.56
2022-11-01T11:41:14.391Z,63.53
2022-11-01T11:42:14.390Z,62.83
2022-11-01T11:43:14.414Z,63.33
2022-11-01T11:44:14.344Z,62.63
2022-11-01T11:45:14.348Z,62.76
2022-11-01T11:46:14.342Z,63.16
2022-11-01T11:47:14.306Z,63.19
2022-11-01T11:48:14.328Z,63.79
2022-11-01T11:49:14.292Z,64.23
2022-11-01T11:50:14.284Z,64.53
2022-11-01T11:51:14.284Z,65.04
2022-11-01T11:52:14.263Z,64.73
2022-11-01T11:53:14.235Z,64.84
2022-11-01T11:54:14.216Z,64.94
2022-11-01T11:55:14.249Z,64.53
2022-11-01T11:56:14.233Z,65.75
2022-11-01T11:57:14.193Z,64.94
2022-11-01T11:58:14.203Z,64.84
2022-11-01T11:59:14.154Z,65.44
2022-11-01T12:00:14.125Z,65.47
2022-11-01T12:01:14.190Z,65.44
2022-11-01T12:02:15.855Z,65.64
2022-11-01T12:03:14.113Z,64.73
2022-11-01T12:04:14.072Z,64.94
2022-11-01T12:05:14.116Z,64.53
2022-11-01T12:06:14.067Z,65.75
2022-11-01T12:07:14.064Z,64.73
2022-11-01T12:08:14.019Z,65.01
2022-11-01T12:09:14.020Z,65.11
2022-11-01T12:10:14.004Z,64.70
2022-11-01T12:11:14.014Z,64.40
2022-11-01T12:12:13.985Z,64.33
2022-11-01T12:13:13.971Z,64.90
2022-11-01T12:14:13.962Z,64.61
2022-11-01T12:15:13.990Z,64.67
2022-11-01T12:16:14.020Z,64.27
2022-11-01T12:17:13.921Z,64.20
2022-11-01T12:18:15.859Z,65.21
2022-11-01T12:19:13.891Z,65.81
2022-11-01T12:20:13.967Z,65.81
2022-11-01T12:21:13.876Z,65.11
2022-11-01T12:22:13.894Z,65.34
2022-11-01T12:23:13.822Z,65.04
2022-11-01T12:24:13.838Z,64.94
2022-11-01T12:25:13.801Z,65.44
2022-11-01T12:26:14.047Z,65.24
2022-11-01T12:27:13.786Z,65.14
2022-11-01T12:28:13.773Z,64.64
2022-11-01T12:29:13.793Z,65.14
2022-11-01T12:30:13.785Z,64.94
2022-11-01T12:31:13.747Z,65.34
2022-11-01T12:32:13.703Z,65.24
2022-11-01T12:33:13.763Z,65.34
2022-11-01T12:34:13.718Z,65.04
2022-11-01T12:35:13.731Z,65.64
2022-11-01T12:36:13.649Z,65.44
2022-11-01T12:37:13.681Z,65.11
2022-11-01T12:38:13.649Z,64.20
2022-11-01T12:39:13.619Z,64.00
2022-11-01T12:40:13.742Z,64.20
2022-11-01T12:41:13.615Z,63.90
2022-11-01T12:42:13.563Z,64.10
2022-11-01T12:43:13.580Z,64.10
2022-11-01T12:44:13.553Z,64.20
2022-11-01T12:45:13.531Z,64.30
2022-11-01T12:46:13.562Z,64.50
2022-11-01T12:47:21.192Z,64.50
2022-11-01T12:48:13.528Z,65.11
2022-11-01T12:49:13.505Z,65.34
2022-11-01T12:50:13.547Z,64.73
2022-11-01T12:51:13.474Z,64.94
2022-11-01T12:52:13.517Z,65.64
2022-11-01T12:53:13.431Z,64.84
2022-11-01T12:54:13.472Z,65.04
2022-11-01T12:55:16.564Z,64.33
2022-11-01T12:56:14.403Z,65.04
2022-11-01T12:57:13.421Z,64.94
2022-11-01T12:58:15.723Z,64.64
2022-11-01T12:59:13.430Z,64.43
2022-11-01T13:00:13.360Z,64.84
2022-11-01T13:01:13.468Z,64.53
2022-11-01T13:02:13.386Z,65.04
2022-11-01T13:03:13.314Z,65.04
2022-11-01T13:04:13.308Z,65.75
2022-11-01T13:05:13.316Z,65.04
2022-11-01T13:06:13.271Z,64.84
2022-11-01T13:07:13.261Z,64.94
2022-11-01T13:08:13.255Z,64.84
2022-11-01T13:09:13.223Z,64.53
2022-11-01T13:10:13.221Z,64.84
2022-11-01T13:11:13.262Z,65.04
2022-11-01T13:12:13.202Z,64.33
2022-11-01T13:13:13.208Z,64.53
2022-11-01T13:14:13.175Z,63.93
2022-11-01T13:15:13.147Z,64.43
2022-11-01T13:16:13.144Z,64.73
2022-11-01T13:17:13.166Z,65.14
2022-11-01T13:18:13.109Z,64.84
2022-11-01T13:19:13.139Z,64.53
2022-11-01T13:20:13.082Z,64.73
2022-11-01T13:21:13.083Z,64.64
2022-11-01T13:22:13.074Z,64.84
2022-11-01T13:23:13.045Z,64.64
2022-11-01T13:24:13.058Z,64.64
2022-11-01T13:25:13.048Z,65.24
2022-11-01T13:26:12.985Z,65.04
2022-11-01T13:27:13.033Z,64.43
2022-11-01T13:28:12.973Z,64.84
2022-11-01T13:29:13.145Z,65.14
2022-11-01T13:30:13.044Z,65.54
2022-11-01T13:31:12.929Z,64.84